METAR Data
IDs: Format: Raw Decoded Include TAF

Data at: 2059 UTC 17 Nov 2019

PGWT 172050Z 09003KT 7SM FEW016 BKN100 BKN150 26/25 A2988